Time;durP1;ratioP1;P1;durP2;ratioP2;P2;SDS_P1;SDS_P2;PMS_P1;PMS_P2;Temp;Humidity;BMP_temperature;BMP_pressure;BME280_temperature;BME280_humidity;BME280_pressure;Samples;Min_cycle;Max_cycle;Signal;HPM_P1;HPM_P2
2022/08/04 00:00:08;;;;;;;7.72;2.42;;;21.40;99.90;;;;;;5057552;28;20439;-75
2022/08/04 00:02:53;;;;;;;6.40;2.25;;;21.40;99.90;;;;;;5038920;28;20384;-75
2022/08/04 00:05:37;;;;;;;5.75;2.30;;;21.40;99.90;;;;;;5035947;28;20207;-75
2022/08/04 00:08:13;;;;;;;8.40;2.70;;;21.40;99.90;;;;;;5036145;28;20068;-75
2022/08/04 00:10:41;;;;;;;7.35;2.45;;;21.30;99.90;;;;;;5039933;28;20041;-75
2022/08/04 00:13:08;;;;;;;7.30;3.03;;;21.30;99.90;;;;;;5038204;28;20066;-75
2022/08/04 00:15:36;;;;;;;6.75;2.30;;;21.30;99.90;;;;;;5020446;28;20056;-74
2022/08/04 00:18:07;;;;;;;8.93;2.88;;;21.30;99.90;;;;;;5034850;28;20037;-75
2022/08/04 00:20:37;;;;;;;6.45;2.70;;;21.30;99.90;;;;;;5036630;28;20044;-75
2022/08/04 00:23:04;;;;;;;5.22;2.90;;;21.30;99.90;;;;;;5033290;28;20040;-75
2022/08/04 00:25:30;;;;;;;7.78;3.25;;;21.40;99.90;;;;;;5039628;28;20064;-75
2022/08/04 00:27:58;;;;;;;8.73;3.35;;;21.30;99.90;;;;;;5039351;28;20068;-75
2022/08/04 00:30:24;;;;;;;9.88;3.03;;;21.30;99.90;;;;;;5042169;28;20048;-75
2022/08/04 00:32:50;;;;;;;8.95;3.42;;;21.40;99.90;;;;;;5039016;28;20029;-75
2022/08/04 00:35:17;;;;;;;8.95;3.38;;;21.30;99.90;;;;;;5038723;28;20043;-76
2022/08/04 00:37:46;;;;;;;9.88;3.28;;;21.30;99.90;;;;;;5037138;28;20513;-75
2022/08/04 00:40:30;;;;;;;7.07;3.22;;;21.30;99.90;;;;;;5040852;28;20112;-75
2022/08/04 00:43:20;;;;;;;15.02;3.30;;;21.20;99.90;;;;;;5034522;28;20037;-75
2022/08/04 00:46:16;;;;;;;7.05;3.05;;;21.20;99.90;;;;;;5035167;28;20034;-75
2022/08/04 00:49:08;;;;;;;8.63;3.30;;;21.20;99.90;;;;;;5059680;28;20049;-76
2022/08/04 00:51:46;;;;;;;6.50;3.20;;;21.20;99.90;;;;;;5035844;28;20041;-75
2022/08/04 00:54:40;;;;;;;7.05;3.50;;;21.20;99.90;;;;;;5035647;28;20047;-76
2022/08/04 00:57:28;;;;;;;8.00;3.35;;;21.10;99.90;;;;;;5023631;28;20069;-75
2022/08/04 01:00:10;;;;;;;10.32;3.25;;;21.10;99.90;;;;;;5037573;28;20057;-75
2022/08/04 01:02:53;;;;;;;6.63;3.00;;;21.10;99.90;;;;;;5041384;28;20045;-76
2022/08/04 01:05:52;;;;;;;10.27;3.40;;;21.00;99.90;;;;;;5037463;28;20040;-75
2022/08/04 01:08:30;;;;;;;5.80;3.35;;;21.00;99.90;;;;;;5058314;28;20075;-75
2022/08/04 01:11:08;;;;;;;5.90;3.30;;;21.00;99.90;;;;;;5055418;28;20165;-75
2022/08/04 01:14:01;;;;;;;8.02;3.60;;;21.00;99.90;;;;;;5037703;28;20402;-75
2022/08/04 01:16:30;;;;;;;9.10;3.30;;;20.90;99.90;;;;;;5019007;28;20036;-75
2022/08/04 01:19:06;;;;;;;6.55;3.13;;;21.00;99.90;;;;;;5054271;28;20091;-75
2022/08/04 01:22:00;;;;;;;7.82;4.35;;;20.90;99.90;;;;;;5039255;28;20072;-75
2022/08/04 01:24:59;;;;;;;10.48;3.50;;;20.90;99.90;;;;;;5048789;28;20132;-75
2022/08/04 01:27:47;;;;;;;8.02;3.20;;;20.80;99.90;;;;;;5034985;28;20679;-75
2022/08/04 01:30:13;;;;;;;9.70;3.88;;;20.80;99.90;;;;;;5057798;28;20061;-75
2022/08/04 01:32:51;;;;;;;9.68;3.80;;;20.80;99.90;;;;;;5033813;28;20064;-75
2022/08/04 01:35:27;;;;;;;8.73;4.05;;;20.80;99.90;;;;;;5057376;28;20052;-75
2022/08/04 01:38:01;;;;;;;8.02;3.78;;;20.70;99.90;;;;;;5024835;28;20122;-75
2022/08/04 01:40:27;;;;;;;7.00;3.42;;;20.70;99.90;;;;;;5038805;28;20044;-75
2022/08/04 01:42:54;;;;;;;8.63;3.88;;;20.70;99.90;;;;;;5037930;28;20065;-75
2022/08/04 01:45:23;;;;;;;10.95;4.35;;;20.70;99.90;;;;;;5035474;28;20037;-75
2022/08/04 01:47:51;;;;;;;9.10;4.05;;;20.70;99.90;;;;;;5034938;28;20052;-75
2022/08/04 01:50:18;;;;;;;8.25;4.35;;;20.60;99.90;;;;;;5037930;28;20081;-75
2022/08/04 01:52:44;;;;;;;7.15;4.28;;;20.60;99.90;;;;;;5022381;28;20052;-75
2022/08/04 01:55:12;;;;;;;9.98;4.32;;;20.60;99.90;;;;;;5037121;28;20517;-76
2022/08/04 01:57:44;;;;;;;9.80;4.80;;;20.60;99.90;;;;;;5038370;28;20119;-75
2022/08/04 02:00:16;;;;;;;7.88;4.20;;;20.60;99.90;;;;;;5031365;28;20041;-75
2022/08/04 02:02:44;;;;;;;9.43;4.90;;;20.60;99.90;;;;;;5060575;28;20044;-75
2022/08/04 02:05:23;;;;;;;11.00;5.35;;;20.60;99.90;;;;;;5033788;28;20059;-76
2022/08/04 02:08:15;;;;;;;11.35;5.05;;;20.60;99.90;;;;;;5020733;28;20040;-75
2022/08/04 02:10:41;;;;;;;8.43;4.68;;;20.60;99.90;;;;;;5041478;28;20049;-76
2022/08/04 02:13:16;;;;;;;15.10;4.70;;;20.60;99.90;;;;;;5041575;28;20037;-76
2022/08/04 02:16:01;;;;;;;12.23;5.25;;;20.60;99.90;;;;;;5039162;28;21855;-76
2022/08/04 02:18:45;;;;;;;9.55;4.97;;;20.60;99.90;;;;;;5037119;28;20090;-76
2022/08/04 02:21:11;;;;;;;;;;;20.60;99.90;;;;;;5024208;28;20091;-75
2022/08/04 02:23:42;;;;;;;8.80;4.82;;;20.60;99.90;;;;;;5041434;28;20025;-75
2022/08/04 02:26:16;;;;;;;7.85;4.70;;;20.50;99.90;;;;;;5024256;28;20447;-75
2022/08/04 02:28:57;;;;;;;9.73;5.13;;;20.50;99.90;;;;;;5040039;28;20033;-75
2022/08/04 02:31:31;;;;;;;13.95;5.03;;;20.50;99.90;;;;;;5042756;28;20041;-75
2022/08/04 02:34:12;;;;;;;11.07;4.75;;;20.40;99.90;;;;;;5019170;28;20029;-76
2022/08/04 02:36:40;;;;;;;9.18;4.85;;;20.40;99.90;;;;;;5039508;28;20055;-75
2022/08/04 02:39:07;;;;;;;12.05;4.90;;;20.40;99.90;;;;;;5036717;28;20037;-76
2022/08/04 02:41:34;;;;;;;9.82;4.65;;;20.40;99.90;;;;;;5036938;28;20158;-75
2022/08/04 02:44:03;;;;;;;12.13;5.13;;;20.40;99.90;;;;;;5063023;28;20042;-75
2022/08/04 02:46:30;;;;;;;11.00;5.00;;;20.50;99.90;;;;;;5043555;28;20124;-75
2022/08/04 02:48:56;;;;;;;12.30;5.00;;;20.40;99.90;;;;;;5042452;28;20120;-75
2022/08/04 02:51:26;;;;;;;8.82;4.68;;;20.30;99.90;;;;;;5040604;28;21092;-75
2022/08/04 02:53:54;;;;;;;8.75;5.20;;;20.30;99.90;;;;;;5058691;28;20041;-76
2022/08/04 02:56:22;;;;;;;12.65;5.65;;;20.30;99.90;;;;;;5042151;28;20094;-76
2022/08/04 02:58:51;;;;;;;9.98;4.95;;;20.20;99.90;;;;;;5023779;28;20112;-75
2022/08/04 03:01:17;;;;;;;8.85;4.40;;;20.20;99.90;;;;;;5058925;28;20065;-75
2022/08/04 03:03:59;;;;;;;10.50;4.60;;;20.10;99.90;;;;;;5036635;28;20072;-75
2022/08/04 03:07:02;;;;;;;9.35;4.90;;;20.10;99.90;;;;;;5041040;28;20239;-76
2022/08/04 03:10:11;;;;;;;6.93;4.32;;;20.00;99.90;;;;;;5039736;28;20033;-75
2022/08/04 03:12:51;;;;;;;9.65;5.70;;;20.00;99.90;;;;;;5040400;28;20102;-75
2022/08/04 03:15:45;;;;;;;11.00;5.47;;;19.90;99.90;;;;;;5036826;28;20045;-75
2022/08/04 03:18:48;;;;;;;9.55;5.85;;;19.80;99.90;;;;;;5036616;28;20037;-76
2022/08/04 03:21:28;;;;;;;14.00;5.97;;;19.80;99.90;;;;;;5038515;28;20041;-75
2022/08/04 03:24:16;;;;;;;13.10;6.40;;;19.70;99.90;;;;;;5022730;28;20090;-75
2022/08/04 03:27:12;;;;;;;9.80;5.78;;;19.70;99.90;;;;;;5040887;28;20045;-76
2022/08/04 03:30:04;;;;;;;11.90;5.97;;;19.60;99.90;;;;;;5025628;28;20084;-76
2022/08/04 03:32:40;;;;;;;14.23;6.57;;;19.70;99.90;;;;;;5044738;28;20509;-75
2022/08/04 03:35:43;;;;;;;9.65;5.95;;;19.60;99.90;;;;;;5058190;28;21870;-76
2022/08/04 03:38:28;;;;;;;8.15;5.95;;;19.60;99.90;;;;;;5061125;28;20053;-75
2022/08/04 03:41:38;;;;;;;10.38;6.00;;;19.60;99.90;;;;;;5044150;28;20044;-75
2022/08/04 03:44:22;;;;;;;10.52;5.80;;;19.60;99.90;;;;;;5021385;28;20482;-76
2022/08/04 03:47:25;;;;;;;9.60;5.47;;;19.50;99.90;;;;;;5055041;28;20042;-76
2022/08/04 03:50:21;;;;;;;9.98;5.60;;;19.50;99.90;;;;;;5033193;28;20396;-75
2022/08/04 03:53:20;;;;;;;13.00;6.07;;;19.50;99.90;;;;;;5032781;28;20065;-75
2022/08/04 03:56:25;;;;;;;9.10;5.97;;;19.50;99.90;;;;;;5040320;28;20676;-75
2022/08/04 03:59:22;;;;;;;9.20;6.22;;;19.40;99.90;;;;;;5024571;28;20037;-76
2022/08/04 04:02:21;;;;;;;9.75;6.05;;;19.40;99.90;;;;;;5041090;28;20044;-75
2022/08/04 04:05:20;;;;;;;12.85;6.00;;;19.50;99.90;;;;;;5051883;28;20029;-75
2022/08/04 04:08:11;;;;;;;11.10;6.35;;;19.50;99.90;;;;;;5037494;28;20116;-75
2022/08/04 04:11:05;;;;;;;8.95;6.05;;;19.50;99.90;;;;;;5038804;28;20499;-75
2022/08/04 04:13:59;;;;;;;12.45;6.22;;;19.40;99.90;;;;;;5038620;28;20049;-75
2022/08/04 04:16:41;;;;;;;8.32;5.72;;;19.40;99.90;;;;;;5030985;28;20121;-75
2022/08/04 04:19:46;;;;;;;10.88;5.85;;;19.40;99.90;;;;;;5040683;28;20037;-75
2022/08/04 04:22:11;;;;;;;;;;;19.40;99.90;;;;;;5038658;28;20047;-75
2022/08/04 04:24:59;;;;;;;9.82;6.00;;;19.30;99.90;;;;;;5035235;28;19920;-75
2022/08/04 04:27:41;;;;;;;13.25;6.05;;;19.30;99.90;;;;;;5031845;28;20120;-75
2022/08/04 04:30:16;;;;;;;11.32;5.82;;;19.30;99.90;;;;;;5042899;28;20040;-75
2022/08/04 04:32:47;;;;;;;10.82;5.68;;;19.30;99.90;;;;;;5037495;28;20123;-75
2022/08/04 04:35:22;;;;;;;12.10;5.88;;;19.40;99.90;;;;;;5040030;28;20144;-76
2022/08/04 04:37:56;;;;;;;8.45;5.72;;;19.50;99.90;;;;;;5039060;28;20043;-75
2022/08/04 04:40:50;;;;;;;7.18;5.55;;;19.60;99.90;;;;;;5056589;28;20546;-76
2022/08/04 04:43:39;;;;;;;9.13;5.40;;;19.60;99.90;;;;;;5033294;28;20040;-76
2022/08/04 04:46:08;;;;;;;11.50;5.28;;;19.60;99.90;;;;;;5060005;28;20127;-76
2022/08/04 04:49:11;;;;;;;11.48;5.22;;;19.70;99.90;;;;;;5040490;28;20399;-75
2022/08/04 04:51:43;;;;;;;10.73;6.00;;;19.70;99.90;;;;;;5037883;28;20038;-75
2022/08/04 04:54:24;;;;;;;9.05;5.38;;;19.70;99.90;;;;;;5023764;28;20041;-75
2022/08/04 04:57:04;;;;;;;9.70;5.32;;;19.60;99.90;;;;;;5035148;28;20507;-76
2022/08/04 04:59:33;;;;;;;12.15;5.25;;;19.80;99.90;;;;;;5031191;28;20091;-76
2022/08/04 05:02:11;;;;;;;13.43;5.72;;;19.80;99.90;;;;;;5015642;28;20045;-75
2022/08/04 05:04:58;;;;;;;8.02;5.05;;;19.90;99.90;;;;;;5035117;28;20051;-75
2022/08/04 05:07:32;;;;;;;10.77;5.07;;;20.00;99.90;;;;;;5039707;28;20038;-75
2022/08/04 05:10:30;;;;;;;10.38;5.38;;;20.00;99.90;;;;;;5043214;28;20108;-76
2022/08/04 05:13:14;;;;;;;9.77;5.13;;;20.10;99.90;;;;;;5035683;28;20526;-76
2022/08/04 05:15:43;;;;;;;7.28;5.13;;;20.20;99.90;;;;;;5042753;28;20400;-76
2022/08/04 05:18:18;;;;;;;8.35;5.10;;;20.30;99.90;;;;;;5038163;28;20639;-75
2022/08/04 05:20:47;;;;;;;7.15;5.18;;;20.40;99.90;;;;;;5041056;28;20034;-75
2022/08/04 05:23:19;;;;;;;10.35;5.90;;;20.50;99.90;;;;;;5035932;28;20064;-76
2022/08/04 05:26:09;;;;;;;12.60;6.22;;;20.50;99.90;;;;;;5038677;28;20071;-76
2022/08/04 05:28:41;;;;;;;11.48;6.47;;;20.70;99.90;;;;;;5057337;28;20037;-76
2022/08/04 05:31:14;;;;;;;14.20;6.53;;;20.70;99.90;;;;;;5021392;28;20045;-75
2022/08/04 05:33:51;;;;;;;11.23;6.60;;;20.90;99.90;;;;;;5037521;28;20410;-75
2022/08/04 05:36:20;;;;;;;11.38;5.90;;;20.90;99.90;;;;;;5036140;28;20041;-76
2022/08/04 05:38:51;;;;;;;11.60;5.57;;;21.00;99.90;;;;;;5057287;28;20049;-75
2022/08/04 05:41:18;;;;;;;11.80;5.95;;;21.10;99.90;;;;;;5041890;28;20068;-76
2022/08/04 05:43:45;;;;;;;10.80;5.88;;;21.20;99.90;;;;;;5040422;28;20029;-75
2022/08/04 05:46:12;;;;;;;13.05;5.53;;;21.30;99.90;;;;;;5044340;28;20040;-76
2022/08/04 05:48:38;;;;;;;12.77;5.80;;;21.40;99.90;;;;;;5038777;28;20798;-76
2022/08/04 05:51:05;;;;;;;10.35;5.90;;;21.50;99.90;;;;;;5063576;28;20079;-76
2022/08/04 05:53:33;;;;;;;11.63;6.65;;;21.60;99.90;;;;;;5042541;28;20053;-76
2022/08/04 05:56:01;;;;;;;11.80;6.70;;;21.70;99.90;;;;;;5063057;28;20126;-76
2022/08/04 05:58:30;;;;;;;10.23;6.00;;;21.80;99.90;;;;;;5040196;28;20087;-75
2022/08/04 06:01:00;;;;;;;15.00;6.38;;;21.90;99.90;;;;;;5034647;28;20063;-76
2022/08/04 06:03:28;;;;;;;12.35;6.55;;;22.00;99.90;;;;;;5039469;28;20048;-76
2022/08/04 06:05:55;;;;;;;10.50;5.55;;;22.10;99.90;;;;;;5062192;28;20518;-76
2022/08/04 06:08:22;;;;;;;12.10;6.05;;;22.30;99.90;;;;;;5042672;28;20033;-75
2022/08/04 06:10:49;;;;;;;11.45;5.05;;;22.40;99.90;;;;;;5040573;28;20052;-76
2022/08/04 06:13:19;;;;;;;10.90;6.05;;;22.50;99.90;;;;;;5038964;28;20047;-76
2022/08/04 06:15:49;;;;;;;14.05;6.40;;;22.60;99.90;;;;;;5055296;28;20499;-77
2022/08/04 06:18:17;;;;;;;10.27;5.80;;;22.70;99.90;;;;;;5035753;28;20491;-76
2022/08/04 06:20:46;;;;;;;14.32;6.70;;;23.00;99.90;;;;;;5042083;28;20041;-76
2022/08/04 06:23:15;;;;;;;9.93;5.80;;;23.10;99.90;;;;;;5044132;28;20037;-76
2022/08/04 06:25:49;;;;;;;13.65;6.13;;;23.20;99.90;;;;;;5037471;28;20037;-76
2022/08/04 06:28:16;;;;;;;9.90;5.93;;;23.30;99.90;;;;;;5027277;28;20037;-76
2022/08/04 06:30:46;;;;;;;10.93;6.13;;;23.40;99.90;;;;;;5034538;28;20033;-76
2022/08/04 06:33:23;;;;;;;12.48;5.93;;;23.40;99.90;;;;;;5048682;28;20597;-76
2022/08/04 06:35:54;;;;;;;11.40;5.63;;;23.50;99.90;;;;;;5030581;28;20564;-76
2022/08/04 06:38:23;;;;;;;9.93;5.70;;;23.60;99.90;;;;;;5045149;28;20041;-77
2022/08/04 06:40:48;;;;;;;9.70;5.93;;;23.70;99.90;;;;;;5041223;28;20410;-78
2022/08/04 06:43:14;;;;;;;12.30;5.50;;;23.80;99.90;;;;;;5036242;28;20152;-78
2022/08/04 06:45:42;;;;;;;10.23;5.88;;;23.80;99.90;;;;;;5034756;28;20053;-78
2022/08/04 06:48:12;;;;;;;10.93;5.38;;;23.80;99.90;;;;;;5039333;28;20041;-78
2022/08/04 06:50:38;;;;;;;9.90;5.22;;;24.00;99.90;;;;;;5038579;28;20048;-78
2022/08/04 06:53:04;;;;;;;9.68;5.38;;;24.20;99.90;;;;;;5033293;28;20291;-78
2022/08/04 06:55:32;;;;;;;11.10;4.82;;;24.30;99.90;;;;;;5016763;28;20052;-78
2022/08/04 06:58:00;;;;;;;10.00;4.80;;;24.30;99.90;;;;;;5043818;28;20068;-78
2022/08/04 07:00:26;;;;;;;9.50;4.97;;;24.40;99.90;;;;;;5033589;28;20088;-77
2022/08/04 07:02:52;;;;;;;11.82;4.57;;;24.40;99.90;;;;;;5034522;28;20442;-78
2022/08/04 07:05:19;;;;;;;11.30;5.22;;;24.40;99.90;;;;;;5039950;28;20045;-78
2022/08/04 07:07:45;;;;;;;11.48;4.25;;;24.50;99.90;;;;;;5030162;28;20061;-78
2022/08/04 07:10:13;;;;;;;10.20;4.15;;;24.60;99.90;;;;;;5040060;28;20038;-78
2022/08/04 07:12:40;;;;;;;9.13;4.00;;;24.80;99.90;;;;;;5033760;28;20422;-78
2022/08/04 07:15:07;;;;;;;8.93;3.72;;;25.00;99.90;;;;;;5036075;28;20037;-77
2022/08/04 07:17:36;;;;;;;11.75;3.95;;;25.10;99.90;;;;;;5033444;28;20073;-78
2022/08/04 07:20:04;;;;;;;7.53;3.63;;;25.30;99.90;;;;;;5030577;28;20033;-77
2022/08/04 07:22:30;;;;;;;9.30;3.70;;;25.50;99.90;;;;;;5062148;28;20415;-77
2022/08/04 07:24:57;;;;;;;7.85;3.33;;;25.60;99.90;;;;;;5030538;28;20044;-77
2022/08/04 07:27:24;;;;;;;6.97;3.33;;;25.70;99.90;;;;;;5037988;28;20080;-78
2022/08/04 07:29:50;;;;;;;9.27;3.03;;;25.80;99.90;;;;;;5045647;28;20037;-78
2022/08/04 07:32:19;;;;;;;8.85;3.17;;;25.80;99.90;;;;;;5028876;28;20044;-78
2022/08/04 07:34:47;;;;;;;9.02;3.30;;;25.80;99.90;;;;;;5054102;28;20045;-78
2022/08/04 07:37:13;;;;;;;6.38;3.10;;;25.70;99.90;;;;;;5026304;28;20076;-78
2022/08/04 07:39:39;;;;;;;6.25;3.00;;;25.70;99.90;;;;;;5042009;28;20052;-77
2022/08/04 07:42:05;;;;;;;10.38;3.10;;;25.80;99.90;;;;;;5037206;28;20038;-77
2022/08/04 07:44:32;;;;;;;8.77;2.83;;;25.90;99.90;;;;;;5070828;28;20124;-77
2022/08/04 07:47:00;;;;;;;7.07;2.85;;;26.00;99.90;;;;;;5030047;28;20042;-78
2022/08/04 07:49:26;;;;;;;11.18;3.13;;;26.10;99.90;;;;;;5035056;28;20044;-77
2022/08/04 07:51:53;;;;;;;6.15;2.28;;;26.10;99.90;;;;;;5050258;28;20044;-77
2022/08/04 07:54:20;;;;;;;5.80;2.65;;;26.20;99.90;;;;;;5064387;28;20099;-78
2022/08/04 07:56:48;;;;;;;8.55;3.40;;;26.20;99.90;;;;;;5030738;28;20033;-77
2022/08/04 07:59:15;;;;;;;6.82;2.53;;;26.10;99.90;;;;;;5020790;28;20033;-78
2022/08/04 08:01:41;;;;;;;6.72;2.88;;;26.10;99.90;;;;;;5054901;28;20656;-78
2022/08/04 08:04:09;;;;;;;7.05;3.22;;;26.30;99.90;;;;;;5047513;28;20127;-76
2022/08/04 08:06:36;;;;;;;8.20;3.22;;;26.40;99.90;;;;;;5048972;28;20493;-77
2022/08/04 08:09:13;;;;;;;8.07;3.25;;;26.40;99.90;;;;;;5011007;28;20493;-77
2022/08/04 08:11:40;;;;;;;7.15;3.40;;;26.60;99.90;;;;;;5043478;28;20595;-78
2022/08/04 08:14:07;;;;;;;13.02;4.13;;;26.70;99.90;;;;;;4995968;28;20091;-77
2022/08/04 08:16:34;;;;;;;9.70;4.10;;;26.80;99.90;;;;;;5029759;28;20045;-77
2022/08/04 08:19:00;;;;;;;9.75;4.13;;;26.70;99.90;;;;;;5031085;28;20049;-76
2022/08/04 08:21:26;;;;;;;10.57;4.22;;;26.60;99.90;;;;;;5038869;28;20038;-79
2022/08/04 08:23:52;;;;;;;9.45;4.40;;;26.50;99.90;;;;;;5034709;28;20052;-76
2022/08/04 08:26:18;;;;;;;5.80;3.80;;;26.30;99.90;;;;;;5035455;28;20132;-76
2022/08/04 08:28:44;;;;;;;8.13;3.72;;;26.20;99.90;;;;;;5040643;28;20037;-77
2022/08/04 08:31:09;;;;;;;7.20;3.00;;;26.20;99.90;;;;;;5028485;28;20091;-77
2022/08/04 08:33:36;;;;;;;7.43;3.50;;;26.20;99.90;;;;;;5038138;28;20041;-76
2022/08/04 08:36:19;;;;;;;7.03;3.45;;;26.30;99.90;;;;;;5036347;28;20492;-76
2022/08/04 08:39:06;;;;;;;9.98;3.65;;;26.50;99.90;;;;;;5057999;28;20041;-76
2022/08/04 08:42:01;;;;;;;7.57;3.88;;;26.50;99.90;;;;;;5040390;28;20416;-77
2022/08/04 08:45:03;;;;;;;6.70;2.92;;;26.60;99.90;;;;;;5035359;28;20115;-76
2022/08/04 08:47:42;;;;;;;8.35;3.80;;;26.80;99.90;;;;;;5039709;28;20032;-77
2022/08/04 08:50:49;;;;;;;8.63;3.88;;;26.80;99.90;;;;;;5020320;28;20156;-78
2022/08/04 08:53:34;;;;;;;8.57;3.95;;;26.70;99.90;;;;;;5047651;28;20048;-76
2022/08/04 08:56:12;;;;;;;9.43;4.20;;;26.60;99.90;;;;;;5039977;28;20044;-78
2022/08/04 08:59:06;;;;;;;8.70;3.97;;;26.60;99.90;;;;;;5038253;28;20140;-76
2022/08/04 09:02:01;;;;;;;8.50;3.92;;;26.70;99.90;;;;;;5035036;28;20048;-77
2022/08/04 09:04:41;;;;;;;9.98;4.80;;;26.70;99.90;;;;;;5053638;28;20041;-76
2022/08/04 09:07:40;;;;;;;6.45;3.90;;;26.70;99.90;;;;;;5019012;28;20033;-76
2022/08/04 09:10:25;;;;;;;10.40;4.88;;;26.70;99.90;;;;;;5031960;28;20032;-77
2022/08/04 09:12:57;;;;;;;8.13;4.82;;;26.60;99.90;;;;;;5027829;28;20045;-77
2022/08/04 09:15:56;;;;;;;11.25;5.50;;;26.40;99.90;;;;;;5045039;28;20124;-79
2022/08/04 09:18:30;;;;;;;9.70;5.00;;;26.30;99.90;;;;;;5031242;28;20048;-76
2022/08/04 09:21:17;;;;;;;8.90;4.50;;;26.20;99.90;;;;;;5035076;28;20033;-77
2022/08/04 09:23:58;;;;;;;11.35;4.88;;;26.20;99.90;;;;;;5041216;28;20043;-77
2022/08/04 09:26:49;;;;;;;9.15;4.60;;;26.30;99.90;;;;;;5040950;28;20099;-78
2022/08/04 09:29:20;;;;;;;8.27;4.00;;;26.50;99.90;;;;;;5041171;28;20040;-77
2022/08/04 09:32:01;;;;;;;9.45;4.68;;;26.50;99.90;;;;;;5037207;28;20045;-75
2022/08/04 09:34:39;;;;;;;8.32;4.30;;;26.60;99.90;;;;;;5057828;28;20061;-77
2022/08/04 09:37:13;;;;;;;10.82;5.10;;;26.60;99.90;;;;;;5036590;28;20041;-76
2022/08/04 09:40:20;;;;;;;5.43;3.70;;;26.70;99.90;;;;;;5030091;28;20049;-77
2022/08/04 09:42:51;;;;;;;7.43;3.78;;;26.80;99.90;;;;;;5031819;28;20805;-80
2022/08/04 09:45:26;;;;;;;9.00;3.60;;;26.90;99.90;;;;;;5031490;28;20048;-77
2022/08/04 09:48:12;;;;;;;9.00;3.20;;;27.00;99.90;;;;;;5037659;28;20041;-77
2022/08/04 09:50:44;;;;;;;5.07;3.08;;;27.10;99.90;;;;;;5037571;28;20071;-77
2022/08/04 09:53:32;;;;;;;8.75;3.95;;;27.30;99.90;;;;;;5032910;28;20049;-78
2022/08/04 09:56:01;;;;;;;8.00;3.65;;;27.20;99.90;;;;;;5076990;28;20068;-78
2022/08/04 09:58:51;;;;;;;8.57;2.92;;;27.10;99.90;;;;;;5032571;28;20046;-77
2022/08/04 10:01:23;;;;;;;5.82;2.10;;;26.90;99.90;;;;;;5015362;28;20392;-78
2022/08/04 10:03:53;;;;;;;7.07;2.25;;;27.00;99.90;;;;;;5064617;28;20058;-77
2022/08/04 10:07:01;;;;;;;3.85;1.77;;;27.00;99.90;;;;;;5030521;28;20033;-77
2022/08/04 10:09:42;;;;;;;5.72;2.00;;;27.30;99.90;;;;;;5016351;28;20091;-79
2022/08/04 10:12:22;;;;;;;7.97;1.75;;;27.30;99.90;;;;;;5032476;28;20041;-77
2022/08/04 10:14:55;;;;;;;6.25;1.65;;;27.30;99.90;;;;;;5029452;28;20084;-77
2022/08/04 10:17:58;;;;;;;4.27;1.80;;;27.40;99.90;;;;;;5030023;28;20056;-77
2022/08/04 10:20:56;;;;;;;6.03;1.50;;;27.20;99.90;;;;;;5040222;28;20283;-76
2022/08/04 10:23:46;;;;;;;5.05;1.60;;;27.20;99.90;;;;;;5031908;28;20094;-76
2022/08/04 10:26:17;;;;;;;8.75;1.60;;;27.40;99.90;;;;;;5009806;28;20038;-77
2022/08/04 10:28:55;;;;;;;7.35;1.77;;;27.50;99.90;;;;;;5011343;28;20042;-79
2022/08/04 10:31:31;;;;;;;4.97;1.80;;;27.60;99.90;;;;;;5063435;28;20411;-77
2022/08/04 10:34:18;;;;;;;10.98;2.10;;;27.50;99.90;;;;;;5033615;28;20075;-77
2022/08/04 10:37:10;;;;;;;8.55;2.30;;;27.60;99.90;;;;;;5034275;28;20092;-77
2022/08/04 10:43:25;;;;;;;9.32;1.98;;;27.60;99.90;;;;;;5066660;28;20092;-77
2022/08/04 10:46:18;;;;;;;8.52;2.10;;;27.50;99.90;;;;;;5032741;28;20130;-79
2022/08/04 10:48:57;;;;;;;6.78;1.80;;;27.40;99.90;;;;;;5035208;28;20041;-78
2022/08/04 10:51:40;;;;;;;9.55;2.40;;;27.20;99.90;;;;;;5034406;28;20124;-77
2022/08/04 10:54:16;;;;;;;10.05;2.10;;;27.20;99.90;;;;;;5033282;28;20073;-76
2022/08/04 10:57:03;;;;;;;8.70;2.25;;;27.20;99.90;;;;;;5013384;28;20042;-78
2022/08/04 11:00:06;;;;;;;7.30;2.15;;;27.20;99.90;;;;;;5008791;28;20029;-77
2022/08/04 11:02:53;;;;;;;6.88;2.33;;;27.30;99.90;;;;;;5025855;28;20057;-78
2022/08/04 11:05:53;;;;;;;7.80;2.50;;;27.40;99.90;;;;;;5035348;28;20136;-77
2022/08/04 11:08:47;;;;;;;8.43;2.83;;;27.40;99.90;;;;;;5029125;28;20037;-76
2022/08/04 11:11:28;;;;;;;11.68;2.53;;;27.50;99.90;;;;;;5011496;28;20074;-76
2022/08/04 11:14:14;;;;;;;5.90;2.40;;;27.50;99.90;;;;;;5010474;28;20052;-78
2022/08/04 11:16:54;;;;;;;5.68;2.35;;;27.80;99.90;;;;;;5011150;28;20037;-78
2022/08/04 11:19:34;;;;;;;9.32;2.05;;;27.90;99.90;;;;;;5016092;28;20092;-77
2022/08/04 11:22:07;;;;;;;5.85;1.58;;;27.90;99.90;;;;;;5012242;28;20115;-78
2022/08/04 11:24:36;;;;;;;5.47;1.58;;;27.70;99.90;;;;;;5025799;28;20033;-80
2022/08/04 11:27:10;;;;;;;4.63;1.40;;;27.60;99.90;;;;;;5032072;28;20091;-77
2022/08/04 11:29:57;;;;;;;5.90;1.60;;;27.60;99.90;;;;;;5034029;28;20037;-79
2022/08/04 11:32:36;;;;;;;3.80;1.45;;;27.60;99.90;;;;;;5036776;28;20042;-79
2022/08/04 11:35:05;;;;;;;4.35;1.58;;;27.50;99.90;;;;;;5016060;28;20036;-78
2022/08/04 11:37:44;;;;;;;4.13;1.65;;;27.50;99.90;;;;;;5032200;28;20121;-78
2022/08/04 11:40:18;;;;;;;4.85;1.50;;;27.50;99.90;;;;;;5032580;28;20640;-77
2022/08/04 11:42:55;;;;;;;6.38;1.35;;;27.60;99.90;;;;;;5032933;28;20046;-79
2022/08/04 11:45:30;;;;;;;5.57;1.42;;;27.60;99.90;;;;;;5017324;28;20044;-78
2022/08/04 11:48:06;;;;;;;2.83;1.40;;;27.60;99.90;;;;;;5035155;28;20041;-79
2022/08/04 11:50:37;;;;;;;4.30;1.40;;;27.50;99.90;;;;;;5036713;28;20049;-80
2022/08/04 11:53:04;;;;;;;2.05;1.30;;;27.60;99.90;;;;;;5022742;28;20079;-77
2022/08/04 11:55:32;;;;;;;3.42;1.20;;;27.40;99.90;;;;;;5035542;28;20064;-77
2022/08/04 11:57:58;;;;;;;6.60;1.67;;;27.30;99.90;;;;;;5034874;28;20095;-78
2022/08/04 12:00:27;;;;;;;3.83;1.33;;;26.90;99.90;;;;;;5034477;28;20029;-77
2022/08/04 12:03:22;;;;;;;4.20;1.40;;;26.90;99.90;;;;;;5035317;28;20045;-78
2022/08/04 12:06:08;;;;;;;5.45;1.80;;;27.00;99.90;;;;;;5035636;28;20065;-78
2022/08/04 12:08:54;;;;;;;2.05;1.30;;;27.00;99.90;;;;;;5014465;28;20120;-79
2022/08/04 12:11:25;;;;;;;2.47;1.40;;;27.10;99.90;;;;;;5012254;28;20113;-77
2022/08/04 12:14:08;;;;;;;2.22;1.20;;;27.10;99.90;;;;;;5012313;28;20407;-78
2022/08/04 12:16:56;;;;;;;3.67;1.30;;;26.90;99.90;;;;;;5016809;28;20092;-77
2022/08/04 12:19:43;;;;;;;3.22;1.10;;;26.70;99.90;;;;;;5051946;28;20041;-78
2022/08/04 12:22:17;;;;;;;2.08;1.00;;;26.60;99.90;;;;;;5032566;28;20049;-76
2022/08/04 12:25:04;;;;;;;3.20;1.45;;;26.60;99.90;;;;;;5013103;28;20041;-78
2022/08/04 12:27:44;;;;;;;3.55;1.10;;;26.60;99.90;;;;;;5060928;28;20500;-77
2022/08/04 12:30:10;;;;;;;2.30;1.23;;;26.60;99.90;;;;;;5035766;28;20052;-78
2022/08/04 12:32:44;;;;;;;2.88;1.20;;;26.50;99.90;;;;;;5033655;28;20049;-76
2022/08/04 12:35:32;;;;;;;4.40;1.08;;;26.40;99.90;;;;;;5031053;28;20116;-80
2022/08/04 12:38:03;;;;;;;2.40;1.10;;;26.30;99.90;;;;;;5034713;28;20052;-77
2022/08/04 12:40:41;;;;;;;2.72;0.95;;;26.30;99.90;;;;;;5035467;28;20048;-78
2022/08/04 12:43:38;;;;;;;2.95;1.25;;;26.30;99.90;;;;;;5033810;28;20099;-78
2022/08/04 12:46:07;;;;;;;4.35;1.20;;;26.40;99.90;;;;;;5030846;28;20640;-77
2022/08/04 12:48:37;;;;;;;3.15;1.30;;;26.60;99.90;;;;;;5034839;28;20045;-79
2022/08/04 12:51:04;;;;;;;8.07;1.20;;;27.00;99.90;;;;;;5033821;28;20041;-77
2022/08/04 12:53:38;;;;;;;3.42;1.20;;;27.30;99.90;;;;;;5027180;28;20065;-79
2022/08/04 12:56:06;;;;;;;3.65;1.30;;;27.40;99.90;;;;;;5046096;28;20033;-77
2022/08/04 12:58:37;;;;;;;2.78;1.05;;;27.40;99.90;;;;;;5065509;28;20517;-78
2022/08/04 13:01:06;;;;;;;5.00;1.30;;;27.50;99.90;;;;;;5055925;28;20060;-78
2022/08/04 13:03:40;;;;;;;1.90;0.95;;;27.70;99.90;;;;;;5065229;28;20041;-79
2022/08/04 13:06:09;;;;;;;2.28;1.00;;;27.50;99.90;;;;;;5015029;28;20029;-78
2022/08/04 13:08:38;;;;;;;3.28;1.10;;;27.60;99.90;;;;;;5027731;28;20568;-78
2022/08/04 13:11:05;;;;;;;3.30;1.20;;;27.70;99.90;;;;;;5038899;28;20041;-79
2022/08/04 13:13:34;;;;;;;4.00;1.40;;;27.70;99.90;;;;;;5039556;28;20056;-81
2022/08/04 13:16:06;;;;;;;6.10;1.38;;;27.60;99.60;;;;;;5021209;28;20037;-80
2022/08/04 13:18:38;;;;;;;2.40;1.10;;;27.50;99.90;;;;;;5029352;28;20396;-79
2022/08/04 13:21:17;;;;;;;2.88;1.20;;;27.50;99.90;;;;;;5025175;28;20037;-78
2022/08/04 13:23:45;;;;;;;5.55;1.50;;;27.80;99.90;;;;;;5042187;28;20037;-78
2022/08/04 13:26:13;;;;;;;3.05;1.17;;;28.10;99.90;;;;;;5037984;28;20042;-78
2022/08/04 13:28:41;;;;;;;2.90;0.80;;;28.20;99.90;;;;;;5044789;28;20770;-78
2022/08/04 13:31:12;;;;;;;2.35;1.08;;;28.20;99.90;;;;;;5042122;28;20034;-79
2022/08/04 13:33:41;;;;;;;2.58;1.15;;;28.30;99.90;;;;;;5043894;28;20044;-80
2022/08/04 13:36:07;;;;;;;2.50;0.90;;;28.20;99.90;;;;;;5043294;28;20052;-80
2022/08/04 13:38:36;;;;;;;4.28;1.00;;;28.00;99.60;;;;;;5043797;28;20048;-79